createdAt,value
2018-03-26T00:00:09.156Z,73.31
2018-03-26T00:01:09.156Z,73.50
2018-03-26T00:02:09.147Z,72.64
2018-03-26T00:03:09.142Z,72.08
2018-03-26T00:04:09.137Z,72.84
2018-03-26T00:05:09.132Z,72.74
2018-03-26T00:06:09.137Z,72.64
2018-03-26T00:07:09.124Z,73.03
2018-03-26T00:08:09.120Z,72.84
2018-03-26T00:09:09.115Z,73.31
2018-03-26T00:10:09.113Z,73.50
2018-03-26T00:11:09.106Z,72.55
2018-03-26T00:12:09.100Z,72.17
2018-03-26T00:13:09.096Z,72.45
2018-03-26T00:14:09.093Z,71.98
2018-03-26T00:15:09.089Z,71.70
2018-03-26T00:16:09.083Z,70.94
2018-03-26T00:17:09.080Z,71.17
2018-03-26T00:18:09.075Z,70.59
2018-03-26T00:19:09.082Z,70.69
2018-03-26T00:20:09.065Z,70.78
2018-03-26T00:21:09.070Z,70.69
2018-03-26T00:22:09.057Z,71.92
2018-03-26T00:23:09.053Z,71.45
2018-03-26T00:24:09.049Z,71.17
2018-03-26T00:25:09.044Z,70.40
2018-03-26T00:26:09.040Z,70.12
2018-03-26T00:27:09.090Z,70.50
2018-03-26T00:28:09.031Z,70.50
2018-03-26T00:29:09.031Z,71.07
2018-03-26T00:30:09.024Z,70.50
2018-03-26T00:31:09.020Z,70.50
2018-03-26T00:32:09.014Z,70.59
2018-03-26T00:33:09.009Z,71.36
2018-03-26T00:34:09.006Z,70.88
2018-03-26T00:35:09.003Z,71.03
2018-03-26T00:36:08.996Z,71.13
2018-03-26T00:37:08.993Z,71.41
2018-03-26T00:38:08.989Z,71.70
2018-03-26T00:39:08.984Z,71.89
2018-03-26T00:40:08.980Z,72.27
2018-03-26T00:41:08.986Z,72.45
2018-03-26T00:42:08.974Z,73.31
2018-03-26T00:43:08.968Z,73.03
2018-03-26T00:44:08.962Z,73.22
2018-03-26T00:45:08.958Z,73.03
2018-03-26T00:46:08.955Z,72.84
2018-03-26T00:47:08.951Z,73.50
2018-03-26T00:48:08.946Z,73.88
2018-03-26T00:49:08.942Z,73.84
2018-03-26T00:50:08.938Z,73.94
2018-03-26T00:51:08.933Z,74.32
2018-03-26T00:52:08.931Z,74.69
2018-03-26T00:53:08.926Z,75.55
2018-03-26T00:54:08.921Z,76.21
2018-03-26T00:55:08.917Z,75.93
2018-03-26T00:56:08.910Z,75.74
2018-03-26T00:57:08.913Z,75.26
2018-03-26T00:58:08.901Z,75.17
2018-03-26T00:59:08.896Z,75.45
2018-03-26T01:00:08.894Z,75.36
2018-03-26T01:01:08.887Z,75.55
2018-03-26T01:02:08.884Z,75.64
2018-03-26T01:03:08.879Z,74.88
2018-03-26T01:04:08.874Z,74.22
2018-03-26T01:05:08.871Z,74.16
2018-03-26T01:06:08.865Z,74.16
2018-03-26T01:07:08.863Z,73.79
2018-03-26T01:08:08.855Z,73.50
2018-03-26T01:09:08.851Z,73.50
2018-03-26T01:10:08.847Z,73.60
2018-03-26T01:11:08.842Z,73.22
2018-03-26T01:12:08.838Z,72.64
2018-03-26T01:13:08.833Z,72.93
2018-03-26T01:14:08.829Z,73.41
2018-03-26T01:15:08.825Z,73.31
2018-03-26T01:16:08.823Z,72.84
2018-03-26T01:17:08.815Z,72.74
2018-03-26T01:18:08.811Z,73.31
2018-03-26T01:19:08.806Z,73.41
2018-03-26T01:20:08.802Z,73.27
2018-03-26T01:21:08.796Z,73.27
2018-03-26T01:22:08.793Z,73.37
2018-03-26T01:23:08.791Z,73.22
2018-03-26T01:24:08.782Z,73.50
2018-03-26T01:25:08.778Z,73.50
2018-03-26T01:26:08.775Z,73.03
2018-03-26T01:27:08.770Z,72.84
2018-03-26T01:28:08.764Z,72.64
2018-03-26T01:29:08.761Z,72.84
2018-03-26T01:30:08.755Z,73.12
2018-03-26T01:31:08.750Z,72.84
2018-03-26T01:32:08.746Z,72.84
2018-03-26T01:33:08.739Z,72.45
2018-03-26T01:34:08.737Z,72.55
2018-03-26T01:35:08.733Z,72.27
2018-03-26T01:36:08.732Z,72.55
2018-03-26T01:37:08.725Z,72.27
2018-03-26T01:38:08.719Z,72.64
2018-03-26T01:39:08.714Z,73.50
2018-03-26T01:40:08.709Z,73.27
2018-03-26T01:41:08.705Z,73.56
2018-03-26T01:42:08.700Z,74.32
2018-03-26T01:43:08.695Z,74.41
2018-03-26T01:44:08.690Z,75.07
2018-03-26T01:45:08.688Z,74.88
2018-03-26T01:46:08.684Z,75.45
2018-03-26T01:47:08.678Z,75.93
2018-03-26T01:48:08.673Z,76.21
2018-03-26T01:49:08.667Z,75.74
2018-03-26T01:50:08.663Z,75.45
2018-03-26T01:51:08.658Z,75.36
2018-03-26T01:52:08.653Z,75.45
2018-03-26T01:53:08.647Z,75.84
2018-03-26T01:54:08.643Z,75.64
2018-03-26T01:55:08.639Z,75.93
2018-03-26T01:56:08.637Z,76.87
2018-03-26T01:57:08.628Z,75.93
2018-03-26T01:58:08.632Z,75.74
2018-03-26T01:59:08.620Z,76.12
2018-03-26T02:00:08.613Z,74.98
2018-03-26T02:01:08.608Z,74.98
2018-03-26T02:02:08.604Z,74.79
2018-03-26T02:03:08.599Z,75.07
2018-03-26T02:04:08.594Z,74.79
2018-03-26T02:05:08.588Z,74.79
2018-03-26T02:06:08.585Z,74.32
2018-03-26T02:07:08.578Z,74.60
2018-03-26T02:08:08.576Z,74.03
2018-03-26T02:09:08.568Z,74.41
2018-03-26T02:10:08.564Z,74.41
2018-03-26T02:11:08.559Z,73.84
2018-03-26T02:12:08.554Z,73.65
2018-03-26T02:13:08.548Z,73.65
2018-03-26T02:14:08.545Z,73.31
2018-03-26T02:15:08.540Z,73.65
2018-03-26T02:16:08.539Z,73.75
2018-03-26T02:17:08.529Z,73.27
2018-03-26T02:18:08.525Z,73.56
2018-03-26T02:19:08.519Z,73.94
2018-03-26T02:20:08.514Z,73.56
2018-03-26T02:21:08.509Z,73.46
2018-03-26T02:22:08.505Z,73.94
2018-03-26T02:23:08.499Z,73.84
2018-03-26T02:24:08.495Z,74.41
2018-03-26T02:25:08.491Z,74.79
2018-03-26T02:26:08.484Z,74.79
2018-03-26T02:27:08.481Z,73.84
2018-03-26T02:28:08.476Z,73.94
2018-03-26T02:29:08.470Z,73.75
2018-03-26T02:30:08.469Z,74.13
2018-03-26T02:31:08.462Z,74.32
2018-03-26T02:32:08.458Z,74.41
2018-03-26T02:33:08.450Z,73.75
2018-03-26T02:34:08.446Z,73.46
2018-03-26T02:35:08.448Z,73.94
2018-03-26T02:36:08.436Z,74.13
2018-03-26T02:37:08.430Z,74.41
2018-03-26T02:38:08.439Z,74.41
2018-03-26T02:39:08.428Z,74.51
2018-03-26T02:40:08.416Z,74.51
2018-03-26T02:41:08.489Z,74.98
2018-03-26T02:42:08.407Z,75.36
2018-03-26T02:43:08.402Z,75.55
2018-03-26T02:44:08.397Z,75.84
2018-03-26T02:45:08.392Z,76.12
2018-03-26T02:46:08.386Z,75.93
2018-03-26T02:47:08.381Z,76.87
2018-03-26T02:48:08.376Z,76.59
2018-03-26T02:49:08.370Z,76.12
2018-03-26T02:50:08.371Z,76.59
2018-03-26T02:51:08.366Z,76.78
2018-03-26T02:52:08.356Z,76.68
2018-03-26T02:53:08.357Z,76.21
2018-03-26T02:54:08.356Z,76.21
2018-03-26T02:55:08.342Z,75.74
2018-03-26T02:56:08.337Z,74.32
2018-03-26T02:57:08.333Z,74.22
2018-03-26T02:58:08.330Z,73.75
2018-03-26T02:59:08.325Z,73.31
2018-03-26T03:00:08.315Z,73.60
2018-03-26T03:01:08.311Z,74.45
2018-03-26T03:02:08.306Z,74.45
2018-03-26T03:03:08.300Z,74.64
2018-03-26T03:04:08.295Z,74.92
2018-03-26T03:05:08.295Z,74.83
2018-03-26T03:06:08.286Z,73.79
2018-03-26T03:07:08.282Z,73.88
2018-03-26T03:08:08.275Z,73.31
2018-03-26T03:09:08.271Z,74.07
2018-03-26T03:10:08.266Z,73.88
2018-03-26T03:11:08.267Z,73.12
2018-03-26T03:12:08.256Z,73.03
2018-03-26T03:13:08.251Z,72.84
2018-03-26T03:14:08.246Z,73.60
2018-03-26T03:15:08.242Z,73.22
2018-03-26T03:16:08.236Z,73.31
2018-03-26T03:17:08.231Z,72.93
2018-03-26T03:18:08.227Z,73.22
2018-03-26T03:19:08.223Z,73.41
2018-03-26T03:20:08.217Z,73.50
2018-03-26T03:21:08.212Z,73.69
2018-03-26T03:22:08.208Z,73.88
2018-03-26T03:23:08.203Z,73.79
2018-03-26T03:24:08.199Z,73.41
2018-03-26T03:25:08.193Z,73.60
2018-03-26T03:26:08.189Z,73.79
2018-03-26T03:27:08.183Z,73.69
2018-03-26T03:28:08.181Z,74.41
2018-03-26T03:29:08.174Z,75.55
2018-03-26T03:30:08.170Z,75.74
2018-03-26T03:31:08.165Z,76.21
2018-03-26T03:32:08.195Z,76.59
2018-03-26T03:33:08.155Z,76.68
2018-03-26T03:34:08.150Z,76.31
2018-03-26T03:35:08.144Z,76.40
2018-03-26T03:36:08.140Z,76.21
2018-03-26T03:37:08.135Z,76.12
2018-03-26T03:38:08.130Z,76.40
2018-03-26T03:39:08.125Z,75.93
2018-03-26T03:40:08.119Z,76.21
2018-03-26T03:41:08.115Z,76.03
2018-03-26T03:42:08.109Z,76.97
2018-03-26T03:43:08.106Z,76.50
2018-03-26T03:44:08.098Z,76.87
2018-03-26T03:45:08.093Z,77.45
2018-03-26T03:46:08.089Z,77.73
2018-03-26T03:47:08.085Z,77.64
2018-03-26T03:48:08.078Z,78.45
2018-03-26T03:49:08.075Z,78.73
2018-03-26T03:50:08.069Z,78.54
2018-03-26T03:51:08.065Z,78.92
2018-03-26T03:52:08.058Z,78.54
2018-03-26T03:53:08.055Z,79.25
2018-03-26T03:54:08.049Z,78.67
2018-03-26T03:55:08.044Z,78.96
2018-03-26T03:56:08.037Z,78.39
2018-03-26T03:57:08.033Z,78.67
2018-03-26T03:58:08.026Z,78.49
2018-03-26T03:59:08.021Z,77.92
2018-03-26T04:00:08.042Z,78.02
2018-03-26T04:01:08.012Z,78.67
2018-03-26T04:02:08.006Z,78.02
2018-03-26T04:03:08.004Z,77.83
2018-03-26T04:04:07.996Z,77.73
2018-03-26T04:05:07.990Z,77.25
2018-03-26T04:06:07.986Z,78.02
2018-03-26T04:07:07.988Z,78.11
2018-03-26T04:08:07.975Z,77.54
2018-03-26T04:09:07.972Z,77.54
2018-03-26T04:10:07.969Z,77.54
2018-03-26T04:11:07.960Z,77.92
2018-03-26T04:12:07.955Z,78.02
2018-03-26T04:13:07.949Z,78.20
2018-03-26T04:14:07.945Z,78.02
2018-03-26T04:15:07.941Z,77.73
2018-03-26T04:16:07.935Z,78.39
2018-03-26T04:17:07.930Z,77.83
2018-03-26T04:18:07.926Z,77.25
2018-03-26T04:19:07.920Z,77.35
2018-03-26T04:20:07.915Z,77.45
2018-03-26T04:21:07.910Z,77.25
2018-03-26T04:22:07.906Z,77.92
2018-03-26T04:23:07.900Z,78.20
2018-03-26T04:24:07.894Z,77.73
2018-03-26T04:25:07.899Z,77.64
2018-03-26T04:26:07.885Z,78.02
2018-03-26T04:27:07.880Z,78.20
2018-03-26T04:28:07.877Z,77.64
2018-03-26T04:29:07.869Z,77.73
2018-03-26T04:30:07.865Z,78.30
2018-03-26T04:31:07.859Z,78.35
2018-03-26T04:32:07.889Z,78.45
2018-03-26T04:33:07.849Z,78.64
2018-03-26T04:34:07.844Z,77.88
2018-03-26T04:35:07.839Z,78.73
2018-03-26T04:36:07.833Z,78.64
2018-03-26T04:37:07.827Z,78.35
2018-03-26T04:38:07.823Z,78.92
2018-03-26T04:39:07.835Z,78.83
2018-03-26T04:40:07.813Z,78.54
2018-03-26T04:41:07.807Z,78.92
2018-03-26T04:42:07.804Z,79.30
2018-03-26T04:43:07.829Z,78.83
2018-03-26T04:44:07.792Z,78.92
2018-03-26T04:45:07.787Z,78.54
2018-03-26T04:46:07.785Z,78.73
2018-03-26T04:47:07.783Z,78.54
2018-03-26T04:48:07.770Z,78.64
2018-03-26T04:49:07.766Z,78.54
2018-03-26T04:50:07.761Z,78.54
2018-03-26T04:51:07.756Z,78.92
2018-03-26T04:52:07.804Z,79.11
2018-03-26T04:53:07.744Z,79.06
2018-03-26T04:54:07.741Z,78.67
2018-03-26T04:55:07.735Z,78.67
2018-03-26T04:56:07.729Z,78.58
2018-03-26T04:57:07.728Z,77.54
2018-03-26T04:58:07.719Z,77.25
2018-03-26T04:59:07.714Z,76.87
2018-03-26T05:00:07.709Z,77.06
2018-03-26T05:01:07.704Z,77.54
2018-03-26T05:02:07.699Z,77.35
2018-03-26T05:03:07.692Z,77.35
2018-03-26T05:04:07.687Z,78.02
2018-03-26T05:05:07.684Z,77.92
2018-03-26T05:06:07.681Z,78.02
2018-03-26T05:07:07.676Z,77.73
2018-03-26T05:08:07.669Z,77.83
2018-03-26T05:09:07.662Z,77.83
2018-03-26T05:10:07.657Z,77.64
2018-03-26T05:11:07.651Z,77.54
2018-03-26T05:12:07.646Z,77.45
2018-03-26T05:13:07.641Z,76.78
2018-03-26T05:14:07.636Z,76.68
2018-03-26T05:15:07.631Z,76.12
2018-03-26T05:16:07.625Z,75.45
2018-03-26T05:17:07.620Z,75.45
2018-03-26T05:18:07.616Z,75.55
2018-03-26T05:19:07.610Z,75.93
2018-03-26T05:20:07.604Z,76.59
2018-03-26T05:21:07.599Z,76.12
2018-03-26T05:22:07.596Z,75.64
2018-03-26T05:23:07.591Z,75.93
2018-03-26T05:24:07.585Z,75.84
2018-03-26T05:25:07.581Z,75.45
2018-03-26T05:26:07.576Z,75.93
2018-03-26T05:27:07.580Z,75.74
2018-03-26T05:28:07.565Z,76.21
2018-03-26T05:29:07.561Z,76.59
2018-03-26T05:30:07.556Z,76.21
2018-03-26T05:31:07.554Z,76.40
2018-03-26T05:32:07.544Z,76.59
2018-03-26T05:33:07.542Z,76.87
2018-03-26T05:34:07.537Z,76.97
2018-03-26T05:35:07.531Z,77.45
2018-03-26T05:36:07.524Z,77.92
2018-03-26T05:37:07.521Z,77.73
2018-03-26T05:38:07.516Z,77.73
2018-03-26T05:39:07.511Z,77.64
2018-03-26T05:40:07.505Z,78.20
2018-03-26T05:41:07.500Z,78.20
2018-03-26T05:42:07.496Z,78.58
2018-03-26T05:43:07.491Z,78.49
2018-03-26T05:44:07.489Z,77.92
2018-03-26T05:45:07.480Z,78.20
2018-03-26T05:46:07.476Z,78.39
2018-03-26T05:47:07.470Z,78.67
2018-03-26T05:48:07.518Z,79.34
2018-03-26T05:49:07.460Z,79.15
2018-03-26T05:50:07.454Z,79.44
2018-03-26T05:51:07.449Z,79.25
2018-03-26T05:52:07.444Z,79.44
2018-03-26T05:53:07.438Z,78.96
2018-03-26T05:54:07.434Z,79.06
2018-03-26T05:55:07.431Z,78.87
2018-03-26T05:56:07.422Z,78.02
2018-03-26T05:57:07.417Z,78.11
2018-03-26T05:58:07.413Z,78.20
2018-03-26T05:59:07.412Z,78.30
2018-03-26T06:00:07.403Z,78.58
2018-03-26T06:01:07.399Z,78.02
2018-03-26T06:02:07.435Z,78.11
2018-03-26T06:03:07.389Z,78.11
2018-03-26T06:04:07.382Z,78.11
2018-03-26T06:05:07.378Z,77.73
2018-03-26T06:06:07.373Z,77.64
2018-03-26T06:07:07.368Z,77.73
2018-03-26T06:08:07.364Z,77.25
2018-03-26T06:09:07.358Z,77.64
2018-03-26T06:10:07.354Z,77.06
2018-03-26T06:11:07.348Z,76.87
2018-03-26T06:12:07.343Z,75.84
2018-03-26T06:13:07.342Z,76.31
2018-03-26T06:14:07.334Z,76.12
2018-03-26T06:15:07.332Z,76.78
2018-03-26T06:16:07.323Z,77.01
2018-03-26T06:17:07.319Z,77.92
2018-03-26T06:18:07.314Z,77.73
2018-03-26T06:19:07.317Z,77.83
2018-03-26T06:20:07.306Z,77.35
2018-03-26T06:21:07.304Z,77.06
2018-03-26T06:22:07.294Z,77.25
2018-03-26T06:23:07.290Z,76.78
2018-03-26T06:24:07.286Z,75.93
2018-03-26T06:25:07.281Z,76.87
2018-03-26T06:26:07.276Z,76.59
2018-03-26T06:27:07.277Z,76.59
2018-03-26T06:28:07.267Z,76.68
2018-03-26T06:29:07.261Z,76.78
2018-03-26T06:30:07.264Z,76.31
2018-03-26T06:31:07.470Z,75.87
2018-03-26T06:32:07.245Z,75.40
2018-03-26T06:33:07.241Z,75.68
2018-03-26T06:34:07.237Z,76.92
2018-03-26T06:35:07.233Z,76.15
2018-03-26T06:36:07.226Z,76.25
2018-03-26T06:37:07.222Z,76.44
2018-03-26T06:38:07.219Z,75.21
2018-03-26T06:39:07.214Z,75.49
2018-03-26T06:40:07.208Z,75.96
2018-03-26T06:41:07.204Z,75.78
2018-03-26T06:42:07.200Z,75.40
2018-03-26T06:43:07.215Z,76.06
2018-03-26T06:44:07.208Z,75.31
2018-03-26T06:45:07.185Z,75.02
2018-03-26T06:46:07.181Z,75.11
2018-03-26T06:47:07.175Z,76.34
2018-03-26T06:48:07.171Z,76.82
2018-03-26T06:49:07.166Z,76.15
2018-03-26T06:50:07.161Z,76.54
2018-03-26T06:51:07.157Z,77.39
2018-03-26T06:52:07.151Z,78.05
2018-03-26T06:53:07.147Z,78.11
2018-03-26T06:54:07.142Z,78.11
2018-03-26T06:55:07.138Z,78.02
2018-03-26T06:56:07.132Z,79.19
2018-03-26T06:57:07.129Z,79.38
2018-03-26T06:58:07.125Z,79.38
2018-03-26T06:59:07.158Z,79.00
2018-03-26T07:00:07.113Z,79.10
2018-03-26T07:01:07.110Z,79.19
2018-03-26T07:02:07.106Z,79.10
2018-03-26T07:03:07.101Z,78.62
2018-03-26T07:04:07.096Z,77.86
2018-03-26T07:05:07.091Z,78.62
2018-03-26T07:06:07.086Z,79.19
2018-03-26T07:07:07.081Z,78.72
2018-03-26T07:08:07.075Z,78.62
2018-03-26T07:09:07.075Z,79.00
2018-03-26T07:10:07.066Z,79.10
2018-03-26T07:11:07.063Z,79.38
2018-03-26T07:12:07.057Z,79.66
2018-03-26T07:13:07.055Z,80.80
2018-03-26T07:14:07.050Z,81.47
2018-03-26T07:15:07.044Z,80.80
2018-03-26T07:16:07.040Z,80.33
2018-03-26T07:17:07.034Z,80.80
2018-03-26T07:18:07.030Z,81.27
2018-03-26T07:19:07.024Z,80.52
2018-03-26T07:20:07.024Z,79.95
2018-03-26T07:21:07.016Z,79.28
2018-03-26T07:22:07.013Z,79.76
2018-03-26T07:23:07.008Z,81.09
2018-03-26T07:24:07.003Z,80.43
2018-03-26T07:25:06.997Z,80.71
2018-03-26T07:26:06.993Z,79.28
2018-03-26T07:27:06.988Z,79.00
2018-03-26T07:28:06.983Z,79.28
2018-03-26T07:29:06.980Z,79.95
2018-03-26T07:30:06.976Z,78.91
2018-03-26T07:31:06.972Z,78.62
2018-03-26T07:32:06.966Z,79.10
2018-03-26T07:33:06.962Z,77.86
2018-03-26T07:34:06.957Z,78.91
2018-03-26T07:35:06.952Z,78.53
2018-03-26T07:36:06.949Z,79.10
2018-03-26T07:37:06.945Z,79.85
2018-03-26T07:38:06.940Z,79.76
2018-03-26T07:39:06.934Z,79.47
2018-03-26T07:40:06.930Z,79.28
2018-03-26T07:41:06.953Z,79.00
2018-03-26T07:42:06.924Z,79.47
2018-03-26T07:43:06.917Z,80.33
2018-03-26T07:44:06.918Z,80.99
2018-03-26T07:45:06.909Z,81.09
2018-03-26T07:46:06.904Z,80.33
2018-03-26T07:47:07.216Z,79.57
2018-03-26T07:48:06.900Z,79.66
2018-03-26T07:49:06.890Z,80.80
2018-03-26T07:50:06.886Z,79.57
2018-03-26T07:51:06.881Z,79.85
2018-03-26T07:52:06.876Z,79.10
2018-03-26T07:53:06.872Z,78.53
2018-03-26T07:54:06.868Z,79.28
2018-03-26T07:55:06.864Z,80.43
2018-03-26T07:56:06.857Z,79.95
2018-03-26T07:57:06.854Z,80.43
2018-03-26T07:58:06.848Z,79.57
2018-03-26T07:59:06.844Z,79.76
2018-03-26T08:00:06.842Z,79.76
2018-03-26T08:01:06.836Z,80.43
2018-03-26T08:02:06.832Z,79.38
2018-03-26T08:03:06.832Z,80.62
2018-03-26T08:04:06.822Z,80.99
2018-03-26T08:05:06.819Z,80.33
2018-03-26T08:06:06.814Z,79.66
2018-03-26T08:07:06.809Z,79.76
2018-03-26T08:08:06.805Z,80.71
2018-03-26T08:09:06.799Z,81.09
2018-03-26T08:10:06.796Z,80.52
2018-03-26T08:11:06.792Z,81.09
2018-03-26T08:12:06.785Z,81.94
2018-03-26T08:13:06.782Z,82.13
2018-03-26T08:14:06.777Z,82.04
2018-03-26T08:15:06.774Z,81.18
2018-03-26T08:16:06.767Z,80.14
2018-03-26T08:17:06.779Z,79.57
2018-03-26T08:18:06.761Z,78.72
2018-03-26T08:19:06.754Z,79.38
2018-03-26T08:20:06.750Z,79.57
2018-03-26T08:21:06.746Z,79.85
2018-03-26T08:22:06.742Z,79.33
2018-03-26T08:23:06.738Z,79.61
2018-03-26T08:24:06.733Z,79.23
2018-03-26T08:25:06.732Z,78.75
2018-03-26T08:26:06.724Z,79.23
2018-03-26T08:27:06.721Z,79.23
2018-03-26T08:28:06.714Z,78.95
2018-03-26T08:29:07.034Z,77.81
2018-03-26T08:30:06.705Z,77.71
2018-03-26T08:31:06.702Z,77.14
2018-03-26T08:32:06.697Z,77.90
2018-03-26T08:33:06.695Z,77.71
2018-03-26T08:34:06.689Z,78.38
2018-03-26T08:35:06.686Z,78.00
2018-03-26T08:36:06.679Z,78.00
2018-03-26T08:37:06.675Z,77.62
2018-03-26T08:38:06.672Z,77.90
2018-03-26T08:39:06.673Z,77.14
2018-03-26T08:40:06.663Z,76.76
2018-03-26T08:41:06.660Z,77.24
2018-03-26T08:42:06.655Z,77.33
2018-03-26T08:43:06.651Z,77.43
2018-03-26T08:44:06.646Z,77.71
2018-03-26T08:45:06.641Z,78.09
2018-03-26T08:46:06.640Z,78.66
2018-03-26T08:47:06.635Z,79.33
2018-03-26T08:48:06.636Z,79.33
2018-03-26T08:49:06.955Z,78.85
2018-03-26T08:50:06.668Z,78.66
2018-03-26T08:51:06.619Z,78.56
2018-03-26T08:52:06.613Z,78.85
2018-03-26T08:53:06.610Z,78.09
2018-03-26T08:54:06.606Z,77.90
2018-03-26T08:55:06.603Z,77.52
2018-03-26T08:56:06.598Z,77.62
2018-03-26T08:57:06.593Z,78.00
2018-03-26T08:58:06.589Z,78.19
2018-03-26T08:59:06.586Z,77.62
2018-03-26T09:00:06.581Z,75.53
2018-03-26T09:01:06.578Z,75.43
2018-03-26T09:02:06.574Z,76.01
2018-03-26T09:03:06.573Z,76.01
2018-03-26T09:04:06.565Z,75.72
2018-03-26T09:05:06.565Z,76.01
2018-03-26T09:06:06.558Z,76.67
2018-03-26T09:07:06.554Z,77.71
2018-03-26T09:08:06.550Z,76.76
2018-03-26T09:09:06.544Z,76.76
2018-03-26T09:10:06.541Z,75.81
2018-03-26T09:11:06.538Z,75.72
2018-03-26T09:12:06.537Z,76.48
2018-03-26T09:13:06.528Z,76.86
2018-03-26T09:14:06.527Z,76.76
2018-03-26T09:15:06.522Z,76.39
2018-03-26T09:16:06.525Z,77.71
2018-03-26T09:17:06.538Z,77.81
2018-03-26T09:18:06.510Z,77.81
2018-03-26T09:19:06.507Z,77.14
2018-03-26T09:20:06.502Z,76.76
2018-03-26T09:21:06.499Z,76.76
2018-03-26T09:22:06.494Z,77.14
2018-03-26T09:23:06.491Z,77.43
2018-03-26T09:24:06.486Z,76.67
2018-03-26T09:25:06.485Z,76.10
2018-03-26T09:26:06.521Z,76.14
2018-03-26T09:27:06.478Z,76.04
2018-03-26T09:28:06.471Z,75.76
2018-03-26T09:29:06.467Z,75.76
2018-03-26T09:30:06.464Z,76.23
2018-03-26T09:31:06.459Z,77.47
2018-03-26T09:32:06.456Z,76.52
2018-03-26T09:33:06.451Z,76.04
2018-03-26T09:34:06.451Z,75.57
2018-03-26T09:35:06.446Z,75.00
2018-03-26T09:36:06.441Z,75.47
2018-03-26T09:37:06.440Z,74.52
2018-03-26T09:38:06.434Z,74.24
2018-03-26T09:39:06.431Z,74.52
2018-03-26T09:40:06.426Z,74.05
2018-03-26T09:41:06.427Z,75.19
2018-03-26T09:42:06.420Z,75.67
2018-03-26T09:43:06.417Z,75.19
2018-03-26T09:44:06.412Z,75.09
2018-03-26T09:45:06.409Z,75.76
2018-03-26T09:46:06.406Z,76.23
2018-03-26T09:47:06.401Z,76.90
2018-03-26T09:48:06.398Z,77.09
2018-03-26T09:49:06.399Z,78.32
2018-03-26T09:50:06.392Z,77.94
2018-03-26T09:51:06.388Z,77.56
2018-03-26T09:52:06.382Z,78.42
2018-03-26T09:53:06.381Z,77.75
2018-03-26T09:54:06.377Z,78.51
2018-03-26T09:55:06.376Z,78.99
2018-03-26T09:56:06.371Z,78.61
2018-03-26T09:57:06.367Z,79.46
2018-03-26T09:58:06.363Z,79.65
2018-03-26T09:59:06.360Z,79.84
2018-03-26T10:00:06.358Z,79.94
2018-03-26T10:01:06.356Z,78.70
2018-03-26T10:02:06.351Z,79.36
2018-03-26T10:03:06.346Z,78.70
2018-03-26T10:04:06.347Z,78.99
2018-03-26T10:05:06.338Z,79.08
2018-03-26T10:06:06.337Z,78.70
2018-03-26T10:07:06.332Z,79.36
2018-03-26T10:08:06.329Z,79.55
2018-03-26T10:09:06.326Z,79.65
2018-03-26T10:10:06.323Z,79.94
2018-03-26T10:11:06.318Z,79.65
2018-03-26T10:12:06.317Z,79.46
2018-03-26T10:13:06.312Z,79.74
2018-03-26T10:14:06.312Z,79.46
2018-03-26T10:15:06.306Z,79.27
2018-03-26T10:16:06.301Z,79.74
2018-03-26T10:17:06.299Z,79.46
2018-03-26T10:18:06.296Z,79.31
2018-03-26T10:19:06.291Z,79.41
2018-03-26T10:20:06.802Z,79.03
2018-03-26T10:21:06.288Z,78.64
2018-03-26T10:22:06.283Z,79.22
2018-03-26T10:23:06.278Z,79.31
2018-03-26T10:24:06.274Z,79.79
2018-03-26T10:25:06.271Z,79.84
2018-03-26T10:26:06.272Z,80.83
2018-03-26T10:27:06.268Z,79.88
2018-03-26T10:28:06.265Z,79.69
2018-03-26T10:29:06.259Z,79.60
2018-03-26T10:30:06.256Z,79.31
2018-03-26T10:31:06.253Z,79.41
2018-03-26T10:32:06.250Z,78.93
2018-03-26T10:33:06.247Z,78.17
2018-03-26T10:34:06.244Z,77.98
2018-03-26T10:35:06.240Z,78.55
2018-03-26T10:36:06.236Z,77.79
2018-03-26T10:37:06.233Z,78.08
2018-03-26T10:38:06.233Z,78.74
2018-03-26T10:39:06.228Z,79.22
2018-03-26T10:40:06.225Z,78.74
2018-03-26T10:41:06.222Z,79.03
2018-03-26T10:42:06.219Z,78.78
2018-03-26T10:43:06.217Z,78.69
2018-03-26T10:44:06.216Z,78.69
2018-03-26T10:45:06.211Z,77.55
2018-03-26T10:46:06.208Z,76.40
2018-03-26T10:47:06.207Z,75.93
2018-03-26T10:48:06.202Z,75.74
2018-03-26T10:49:06.200Z,75.55
2018-03-26T10:50:06.198Z,75.45
2018-03-26T10:51:06.234Z,76.12
2018-03-26T10:52:06.192Z,75.17
2018-03-26T10:53:06.190Z,74.79
2018-03-26T10:54:06.191Z,75.21
2018-03-26T10:55:06.186Z,75.96
2018-03-26T10:56:06.182Z,75.87
2018-03-26T10:57:06.180Z,75.21
2018-03-26T10:58:06.178Z,74.44
2018-03-26T10:59:06.176Z,74.07
2018-03-26T11:00:06.173Z,74.63
2018-03-26T11:01:06.173Z,73.69
2018-03-26T11:02:06.170Z,72.45
2018-03-26T11:03:06.171Z,72.49
2018-03-26T11:04:06.166Z,72.39
2018-03-26T11:05:06.165Z,71.97
2018-03-26T11:06:06.163Z,72.74
2018-03-26T11:07:06.160Z,73.72
2018-03-26T11:08:06.159Z,73.25
2018-03-26T11:09:06.157Z,72.58
2018-03-26T11:10:06.156Z,71.91
2018-03-26T11:11:06.217Z,70.87
2018-03-26T11:12:06.152Z,71.34
2018-03-26T11:13:06.150Z,70.87
2018-03-26T11:14:06.149Z,70.68
2018-03-26T11:15:06.148Z,71.12
2018-03-26T11:16:06.144Z,71.88
2018-03-26T11:17:06.148Z,71.88
2018-03-26T11:18:06.140Z,72.64
2018-03-26T11:19:06.140Z,72.96
2018-03-26T11:20:06.138Z,72.55
2018-03-26T11:21:06.137Z,72.86
2018-03-26T11:22:06.135Z,73.02
2018-03-26T11:23:06.133Z,72.67
2018-03-26T11:24:06.131Z,72.58
2018-03-26T11:25:06.132Z,72.07
2018-03-26T11:26:06.126Z,72.74
2018-03-26T11:27:06.126Z,72.83
2018-03-26T11:28:06.134Z,72.92
2018-03-26T11:29:06.122Z,73.21
2018-03-26T11:30:06.122Z,72.55
2018-03-26T11:31:06.118Z,71.69
2018-03-26T11:32:06.117Z,72.45
2018-03-26T11:33:06.115Z,73.02
2018-03-26T11:34:06.112Z,72.55
2018-03-26T11:35:06.110Z,72.07
2018-03-26T11:36:06.110Z,70.45
2018-03-26T11:37:06.108Z,69.92
2018-03-26T11:38:06.106Z,69.79
2018-03-26T11:39:06.104Z,69.88
2018-03-26T11:40:06.101Z,69.50
2018-03-26T11:41:06.409Z,69.60
2018-03-26T11:42:06.101Z,69.79
2018-03-26T11:43:06.094Z,69.79
2018-03-26T11:44:06.093Z,69.12
2018-03-26T11:45:06.092Z,69.15
2018-03-26T11:46:06.090Z,69.06
2018-03-26T11:47:06.086Z,69.35
2018-03-26T11:48:06.263Z,68.30
2018-03-26T11:49:06.083Z,68.40
2018-03-26T11:50:06.080Z,67.54
2018-03-26T11:51:06.079Z,67.07
2018-03-26T11:52:06.076Z,67.16
2018-03-26T11:53:06.073Z,67.25
2018-03-26T11:54:06.072Z,67.07
2018-03-26T11:55:06.070Z,67.63
2018-03-26T11:56:06.072Z,68.01
2018-03-26T11:57:06.066Z,68.68
2018-03-26T11:58:06.065Z,67.92
2018-03-26T11:59:06.063Z,67.35
2018-03-26T12:00:06.061Z,66.59
2018-03-26T12:01:06.060Z,66.59
2018-03-26T12:02:06.114Z,66.30
2018-03-26T12:03:06.058Z,66.49
2018-03-26T12:04:06.054Z,66.49
2018-03-26T12:05:06.052Z,65.73
2018-03-26T12:06:06.049Z,65.92
2018-03-26T12:07:06.049Z,65.73
2018-03-26T12:08:06.047Z,66.20
2018-03-26T12:09:06.046Z,65.92
2018-03-26T12:10:06.047Z,66.02
2018-03-26T12:11:06.041Z,65.54
2018-03-26T12:12:06.040Z,66.11
2018-03-26T12:13:06.044Z,67.16
2018-03-26T12:14:06.043Z,67.25
2018-03-26T12:15:06.033Z,67.35
2018-03-26T12:16:06.031Z,65.64
2018-03-26T12:17:06.035Z,66.30
2018-03-26T12:18:06.029Z,67.07
2018-03-26T12:19:06.025Z,67.07
2018-03-26T12:20:06.024Z,67.54
2018-03-26T12:21:06.021Z,66.87
2018-03-26T12:22:06.018Z,66.39
2018-03-26T12:23:06.018Z,66.97
2018-03-26T12:24:06.015Z,66.87
2018-03-26T12:25:06.013Z,66.78
2018-03-26T12:26:06.012Z,66.97
2018-03-26T12:27:06.015Z,67.54
2018-03-26T12:28:06.021Z,68.40
2018-03-26T12:29:06.005Z,68.01
2018-03-26T12:30:06.003Z,67.44
2018-03-26T12:31:06.003Z,67.82
2018-03-26T12:32:06.002Z,67.25
2018-03-26T12:33:05.998Z,67.25
2018-03-26T12:34:05.996Z,67.16
2018-03-26T12:35:06.424Z,66.97
2018-03-26T12:36:05.992Z,67.07
2018-03-26T12:37:05.990Z,68.01
2018-03-26T12:38:05.987Z,68.11
2018-03-26T12:39:05.986Z,67.07
2018-03-26T12:40:05.984Z,66.02
2018-03-26T12:41:05.983Z,64.69
2018-03-26T12:42:05.981Z,65.06
2018-03-26T12:43:05.980Z,65.54
2018-03-26T12:44:05.977Z,65.73
2018-03-26T12:45:05.985Z,65.45
2018-03-26T12:46:05.972Z,65.73
2018-03-26T12:47:05.971Z,63.35
2018-03-26T12:48:05.968Z,61.64
2018-03-26T12:49:05.967Z,61.35
2018-03-26T12:50:05.965Z,61.45
2018-03-26T12:51:05.966Z,61.16
2018-03-26T12:52:05.961Z,61.55